sensor_id;sensor_type;location;lat;lon;timestamp;pressure;altitude;pressure_sealevel;temperature
41593;BMP180;28026;48.562;14.440;2023-02-15T00:02:22;94994.00;;;7.90
41593;BMP180;28026;48.562;14.440;2023-02-15T00:04:54;94995.00;;;7.90
41593;BMP180;28026;48.562;14.440;2023-02-15T00:07:26;94989.00;;;7.90
41593;BMP180;28026;48.562;14.440;2023-02-15T00:09:57;94990.00;;;7.90
41593;BMP180;28026;48.562;14.440;2023-02-15T00:12:28;94987.00;;;7.90
41593;BMP180;28026;48.562;14.440;2023-02-15T00:14:59;94991.00;;;7.90
41593;BMP180;28026;48.562;14.440;2023-02-15T00:17:30;94987.00;;;7.90
41593;BMP180;28026;48.562;14.440;2023-02-15T00:20:01;94990.00;;;7.90
41593;BMP180;28026;48.562;14.440;2023-02-15T00:22:32;94998.00;;;7.90
41593;BMP180;28026;48.562;14.440;2023-02-15T00:25:03;94988.00;;;7.90
41593;BMP180;28026;48.562;14.440;2023-02-15T00:27:34;94989.00;;;7.80
41593;BMP180;28026;48.562;14.440;2023-02-15T00:30:06;94989.00;;;7.80
41593;BMP180;28026;48.562;14.440;2023-02-15T00:32:37;94990.00;;;7.70
41593;BMP180;28026;48.562;14.440;2023-02-15T00:35:08;94983.00;;;7.70
41593;BMP180;28026;48.562;14.440;2023-02-15T00:37:39;94983.00;;;7.60
41593;BMP180;28026;48.562;14.440;2023-02-15T00:40:10;94982.00;;;7.60
41593;BMP180;28026;48.562;14.440;2023-02-15T00:42:41;94978.00;;;7.60
41593;BMP180;28026;48.562;14.440;2023-02-15T00:45:12;94973.00;;;7.60
41593;BMP180;28026;48.562;14.440;2023-02-15T00:47:43;94982.00;;;7.60
41593;BMP180;28026;48.562;14.440;2023-02-15T00:50:14;94971.00;;;7.60
41593;BMP180;28026;48.562;14.440;2023-02-15T00:52:45;94971.00;;;7.50
41593;BMP180;28026;48.562;14.440;2023-02-15T00:55:16;94967.00;;;7.50
41593;BMP180;28026;48.562;14.440;2023-02-15T00:57:47;94973.00;;;7.50
41593;BMP180;28026;48.562;14.440;2023-02-15T01:00:18;94965.00;;;7.50
41593;BMP180;28026;48.562;14.440;2023-02-15T01:02:49;94961.00;;;7.40
41593;BMP180;28026;48.562;14.440;2023-02-15T01:05:19;94960.00;;;7.40
41593;BMP180;28026;48.562;14.440;2023-02-15T01:07:50;94959.00;;;7.40
41593;BMP180;28026;48.562;14.440;2023-02-15T01:10:21;94951.00;;;7.40
41593;BMP180;28026;48.562;14.440;2023-02-15T01:12:54;94949.00;;;7.40
41593;BMP180;28026;48.562;14.440;2023-02-15T01:15:26;94949.00;;;7.40
41593;BMP180;28026;48.562;14.440;2023-02-15T01:17:57;94946.00;;;7.40
41593;BMP180;28026;48.562;14.440;2023-02-15T01:20:29;94934.00;;;7.40
41593;BMP180;28026;48.562;14.440;2023-02-15T01:23:00;94937.00;;;7.40
41593;BMP180;28026;48.562;14.440;2023-02-15T01:25:33;94932.00;;;7.40
41593;BMP180;28026;48.562;14.440;2023-02-15T01:28:05;94935.00;;;7.30
41593;BMP180;28026;48.562;14.440;2023-02-15T01:30:36;94931.00;;;7.20
41593;BMP180;28026;48.562;14.440;2023-02-15T01:33:07;94923.00;;;7.20
41593;BMP180;28026;48.562;14.440;2023-02-15T01:35:42;94929.00;;;7.20
41593;BMP180;28026;48.562;14.440;2023-02-15T01:38:14;94921.00;;;7.20
41593;BMP180;28026;48.562;14.440;2023-02-15T01:40:45;94915.00;;;7.20
41593;BMP180;28026;48.562;14.440;2023-02-15T01:43:15;94912.00;;;7.20
41593;BMP180;28026;48.562;14.440;2023-02-15T01:45:49;94905.00;;;7.20
41593;BMP180;28026;48.562;14.440;2023-02-15T01:48:24;94912.00;;;7.20
41593;BMP180;28026;48.562;14.440;2023-02-15T01:51:01;94908.00;;;7.30
41593;BMP180;28026;48.562;14.440;2023-02-15T01:53:43;94898.00;;;7.30
41593;BMP180;28026;48.562;14.440;2023-02-15T01:56:28;94894.00;;;7.20
41593;BMP180;28026;48.562;14.440;2023-02-15T01:59:09;94885.00;;;7.20
41593;BMP180;28026;48.562;14.440;2023-02-15T02:01:54;94893.00;;;7.20
41593;BMP180;28026;48.562;14.440;2023-02-15T02:04:41;94872.00;;;7.20
41593;BMP180;28026;48.562;14.440;2023-02-15T02:07:20;94874.00;;;7.20
41593;BMP180;28026;48.562;14.440;2023-02-15T02:09:53;94878.00;;;7.10
41593;BMP180;28026;48.562;14.440;2023-02-15T02:12:25;94867.00;;;7.10
41593;BMP180;28026;48.562;14.440;2023-02-15T02:14:57;94861.00;;;7.00
41593;BMP180;28026;48.562;14.440;2023-02-15T02:18:07;94867.00;;;7.00
41593;BMP180;28026;48.562;14.440;2023-02-15T02:21:02;94855.00;;;7.00
41593;BMP180;28026;48.562;14.440;2023-02-15T02:31:03;94854.00;;;6.90
41593;BMP180;28026;48.562;14.440;2023-02-15T02:34:16;94851.00;;;6.80
41593;BMP180;28026;48.562;14.440;2023-02-15T02:37:24;94857.00;;;6.80
41593;BMP180;28026;48.562;14.440;2023-02-15T02:44:22;94852.00;;;6.80
41593;BMP180;28026;48.562;14.440;2023-02-15T02:47:09;94840.00;;;6.70
41593;BMP180;28026;48.562;14.440;2023-02-15T02:49:58;94842.00;;;6.70
41593;BMP180;28026;48.562;14.440;2023-02-15T02:55:34;94848.00;;;6.80
41593;BMP180;28026;48.562;14.440;2023-02-15T03:01:32;94844.00;;;6.60
41593;BMP180;28026;48.562;14.440;2023-02-15T03:04:17;94843.00;;;6.70
41593;BMP180;28026;48.562;14.440;2023-02-15T03:07:01;94837.00;;;6.70
41593;BMP180;28026;48.562;14.440;2023-02-15T03:09:42;94842.00;;;6.70
41593;BMP180;28026;48.562;14.440;2023-02-15T03:12:22;94837.00;;;6.80
41593;BMP180;28026;48.562;14.440;2023-02-15T03:15:21;94844.00;;;6.80
41593;BMP180;28026;48.562;14.440;2023-02-15T03:17:58;94842.00;;;6.70
41593;BMP180;28026;48.562;14.440;2023-02-15T03:20:36;94847.00;;;6.70
41593;BMP180;28026;48.562;14.440;2023-02-15T03:23:17;94847.00;;;6.70
41593;BMP180;28026;48.562;14.440;2023-02-15T03:26:05;94843.00;;;6.70
41593;BMP180;28026;48.562;14.440;2023-02-15T03:28:49;94858.00;;;6.70
41593;BMP180;28026;48.562;14.440;2023-02-15T03:31:28;94829.00;;;6.60
41593;BMP180;28026;48.562;14.440;2023-02-15T03:34:08;94843.00;;;6.50
41593;BMP180;28026;48.562;14.440;2023-02-15T03:39:38;94844.00;;;6.40
41593;BMP180;28026;48.562;14.440;2023-02-15T03:42:28;94853.00;;;6.40
41593;BMP180;28026;48.562;14.440;2023-02-15T03:45:15;94844.00;;;6.40
41593;BMP180;28026;48.562;14.440;2023-02-15T03:47:56;94846.00;;;6.40
41593;BMP180;28026;48.562;14.440;2023-02-15T03:50:34;94839.00;;;6.40
41593;BMP180;28026;48.562;14.440;2023-02-15T03:53:27;94840.00;;;6.40
41593;BMP180;28026;48.562;14.440;2023-02-15T03:55:59;94837.00;;;6.40
41593;BMP180;28026;48.562;14.440;2023-02-15T03:58:30;94833.00;;;6.40
41593;BMP180;28026;48.562;14.440;2023-02-15T04:01:35;94835.00;;;6.40
41593;BMP180;28026;48.562;14.440;2023-02-15T04:04:43;94830.00;;;6.30
41593;BMP180;28026;48.562;14.440;2023-02-15T04:07:16;94829.00;;;6.30
41593;BMP180;28026;48.562;14.440;2023-02-15T04:09:47;94826.00;;;6.30
41593;BMP180;28026;48.562;14.440;2023-02-15T04:12:36;94822.00;;;6.30
41593;BMP180;28026;48.562;14.440;2023-02-15T04:15:12;94825.00;;;6.20
41593;BMP180;28026;48.562;14.440;2023-02-15T04:18:03;94817.00;;;6.10
41593;BMP180;28026;48.562;14.440;2023-02-15T04:20:34;94820.00;;;6.10
41593;BMP180;28026;48.562;14.440;2023-02-15T04:23:24;94819.00;;;6.10
41593;BMP180;28026;48.562;14.440;2023-02-15T04:26:13;94819.00;;;6.10
41593;BMP180;28026;48.562;14.440;2023-02-15T04:28:44;94818.00;;;6.10
41593;BMP180;28026;48.562;14.440;2023-02-15T04:31:15;94814.00;;;6.00
41593;BMP180;28026;48.562;14.440;2023-02-15T04:33:46;94814.00;;;6.00
41593;BMP180;28026;48.562;14.440;2023-02-15T04:36:18;94820.00;;;6.00
41593;BMP180;28026;48.562;14.440;2023-02-15T04:38:49;94823.00;;;6.00
41593;BMP180;28026;48.562;14.440;2023-02-15T04:41:20;94807.00;;;5.90
41593;BMP180;28026;48.562;14.440;2023-02-15T04:43:51;94817.00;;;5.90
41593;BMP180;28026;48.562;14.440;2023-02-15T04:46:22;94814.00;;;5.90
41593;BMP180;28026;48.562;14.440;2023-02-15T04:48:53;94812.00;;;5.90
41593;BMP180;28026;48.562;14.440;2023-02-15T04:51:26;94819.00;;;5.90
41593;BMP180;28026;48.562;14.440;2023-02-15T04:53:57;94814.00;;;5.80
41593;BMP180;28026;48.562;14.440;2023-02-15T04:56:28;94825.00;;;5.80
41593;BMP180;28026;48.562;14.440;2023-02-15T04:59:00;94818.00;;;5.90
41593;BMP180;28026;48.562;14.440;2023-02-15T05:01:31;94810.00;;;5.90
41593;BMP180;28026;48.562;14.440;2023-02-15T05:04:03;94828.00;;;5.90
41593;BMP180;28026;48.562;14.440;2023-02-15T05:06:34;94817.00;;;5.90
41593;BMP180;28026;48.562;14.440;2023-02-15T05:09:05;94817.00;;;5.90
41593;BMP180;28026;48.562;14.440;2023-02-15T05:11:36;94822.00;;;5.90
41593;BMP180;28026;48.562;14.440;2023-02-15T05:14:07;94826.00;;;5.90
41593;BMP180;28026;48.562;14.440;2023-02-15T05:16:38;94825.00;;;6.00
41593;BMP180;28026;48.562;14.440;2023-02-15T05:19:09;94820.00;;;5.90
41593;BMP180;28026;48.562;14.440;2023-02-15T05:21:40;94819.00;;;5.90
41593;BMP180;28026;48.562;14.440;2023-02-15T05:24:10;94811.00;;;5.90
41593;BMP180;28026;48.562;14.440;2023-02-15T05:27:00;94815.00;;;5.90
41593;BMP180;28026;48.562;14.440;2023-02-15T05:29:49;94817.00;;;5.90
41593;BMP180;28026;48.562;14.440;2023-02-15T05:32:20;94816.00;;;5.90
41593;BMP180;28026;48.562;14.440;2023-02-15T05:34:51;94816.00;;;5.90
41593;BMP180;28026;48.562;14.440;2023-02-15T05:37:22;94821.00;;;5.90
41593;BMP180;28026;48.562;14.440;2023-02-15T05:39:53;94819.00;;;5.90
41593;BMP180;28026;48.562;14.440;2023-02-15T05:42:24;94822.00;;;5.90
41593;BMP180;28026;48.562;14.440;2023-02-15T05:44:55;94823.00;;;5.80
41593;BMP180;28026;48.562;14.440;2023-02-15T05:47:26;94822.00;;;5.80
41593;BMP180;28026;48.562;14.440;2023-02-15T05:49:56;94821.00;;;5.70
41593;BMP180;28026;48.562;14.440;2023-02-15T05:52:27;94825.00;;;5.70
41593;BMP180;28026;48.562;14.440;2023-02-15T05:54:58;94826.00;;;5.60
41593;BMP180;28026;48.562;14.440;2023-02-15T05:57:30;94823.00;;;5.70
41593;BMP180;28026;48.562;14.440;2023-02-15T06:00:04;94823.00;;;5.70
41593;BMP180;28026;48.562;14.440;2023-02-15T06:02:36;94821.00;;;5.70
41593;BMP180;28026;48.562;14.440;2023-02-15T06:05:08;94823.00;;;5.60
41593;BMP180;28026;48.562;14.440;2023-02-15T06:07:43;94829.00;;;5.60
41593;BMP180;28026;48.562;14.440;2023-02-15T06:10:15;94830.00;;;5.60
41593;BMP180;28026;48.562;14.440;2023-02-15T06:12:46;94828.00;;;5.60
41593;BMP180;28026;48.562;14.440;2023-02-15T06:15:17;94833.00;;;5.60
41593;BMP180;28026;48.562;14.440;2023-02-15T06:17:48;94821.00;;;5.60
41593;BMP180;28026;48.562;14.440;2023-02-15T06:20:20;94828.00;;;5.60
41593;BMP180;28026;48.562;14.440;2023-02-15T06:22:50;94824.00;;;5.60
41593;BMP180;28026;48.562;14.440;2023-02-15T06:25:21;94828.00;;;5.70
41593;BMP180;28026;48.562;14.440;2023-02-15T06:27:52;94821.00;;;5.70
41593;BMP180;28026;48.562;14.440;2023-02-15T06:30:23;94830.00;;;5.70
41593;BMP180;28026;48.562;14.440;2023-02-15T06:32:54;94829.00;;;5.70
41593;BMP180;28026;48.562;14.440;2023-02-15T06:35:25;94832.00;;;5.70
41593;BMP180;28026;48.562;14.440;2023-02-15T06:37:56;94831.00;;;5.70
41593;BMP180;28026;48.562;14.440;2023-02-15T06:40:27;94832.00;;;5.70
41593;BMP180;28026;48.562;14.440;2023-02-15T06:42:57;94834.00;;;5.70
41593;BMP180;28026;48.562;14.440;2023-02-15T06:45:28;94834.00;;;5.70
41593;BMP180;28026;48.562;14.440;2023-02-15T06:47:59;94836.00;;;5.80
41593;BMP180;28026;48.562;14.440;2023-02-15T06:50:30;94846.00;;;5.80
41593;BMP180;28026;48.562;14.440;2023-02-15T06:53:01;94845.00;;;5.90
41593;BMP180;28026;48.562;14.440;2023-02-15T06:55:33;94849.00;;;6.00
41593;BMP180;28026;48.562;14.440;2023-02-15T06:58:04;94846.00;;;6.10
41593;BMP180;28026;48.562;14.440;2023-02-15T07:00:35;94841.00;;;6.20
41593;BMP180;28026;48.562;14.440;2023-02-15T07:03:06;94843.00;;;6.30
41593;BMP180;28026;48.562;14.440;2023-02-15T07:05:37;94847.00;;;6.40
41593;BMP180;28026;48.562;14.440;2023-02-15T07:08:08;94836.00;;;6.50
41593;BMP180;28026;48.562;14.440;2023-02-15T07:10:38;94851.00;;;6.60
41593;BMP180;28026;48.562;14.440;2023-02-15T07:13:09;94838.00;;;6.80
41593;BMP180;28026;48.562;14.440;2023-02-15T07:15:40;94841.00;;;6.90
41593;BMP180;28026;48.562;14.440;2023-02-15T07:18:11;94850.00;;;7.10
41593;BMP180;28026;48.562;14.440;2023-02-15T07:20:42;94851.00;;;7.30
41593;BMP180;28026;48.562;14.440;2023-02-15T07:23:13;94845.00;;;7.40
41593;BMP180;28026;48.562;14.440;2023-02-15T07:25:44;94847.00;;;7.60
41593;BMP180;28026;48.562;14.440;2023-02-15T07:28:15;94854.00;;;7.80
41593;BMP180;28026;48.562;14.440;2023-02-15T07:30:46;94845.00;;;8.00
41593;BMP180;28026;48.562;14.440;2023-02-15T07:33:17;94846.00;;;8.20
41593;BMP180;28026;48.562;14.440;2023-02-15T07:35:58;94853.00;;;8.30
41593;BMP180;28026;48.562;14.440;2023-02-15T07:38:38;94848.00;;;8.50
41593;BMP180;28026;48.562;14.440;2023-02-15T07:41:14;94849.00;;;8.70
41593;BMP180;28026;48.562;14.440;2023-02-15T07:43:47;94852.00;;;8.80
41593;BMP180;28026;48.562;14.440;2023-02-15T07:46:19;94855.00;;;8.90
41593;BMP180;28026;48.562;14.440;2023-02-15T07:48:51;94852.00;;;9.00
41593;BMP180;28026;48.562;14.440;2023-02-15T07:51:22;94850.00;;;9.10
41593;BMP180;28026;48.562;14.440;2023-02-15T07:53:52;94852.00;;;9.30
41593;BMP180;28026;48.562;14.440;2023-02-15T07:56:23;94854.00;;;9.40
41593;BMP180;28026;48.562;14.440;2023-02-15T07:58:54;94850.00;;;9.50
41593;BMP180;28026;48.562;14.440;2023-02-15T08:01:35;94861.00;;;9.60
41593;BMP180;28026;48.562;14.440;2023-02-15T08:04:07;94859.00;;;9.80
41593;BMP180;28026;48.562;14.440;2023-02-15T08:06:39;94864.00;;;9.90
41593;BMP180;28026;48.562;14.440;2023-02-15T08:09:11;94859.00;;;10.00
41593;BMP180;28026;48.562;14.440;2023-02-15T08:11:42;94866.00;;;10.10
41593;BMP180;28026;48.562;14.440;2023-02-15T08:16:53;94865.00;;;10.20
41593;BMP180;28026;48.562;14.440;2023-02-15T08:19:29;94862.00;;;10.30
41593;BMP180;28026;48.562;14.440;2023-02-15T08:22:05;94861.00;;;10.30
41593;BMP180;28026;48.562;14.440;2023-02-15T08:24:37;94860.00;;;10.40
41593;BMP180;28026;48.562;14.440;2023-02-15T08:27:10;94864.00;;;10.60
41593;BMP180;28026;48.562;14.440;2023-02-15T08:29:42;94864.00;;;10.80
41593;BMP180;28026;48.562;14.440;2023-02-15T08:32:13;94857.00;;;11.00
41593;BMP180;28026;48.562;14.440;2023-02-15T08:34:44;94854.00;;;11.10
41593;BMP180;28026;48.562;14.440;2023-02-15T08:37:15;94854.00;;;11.30
41593;BMP180;28026;48.562;14.440;2023-02-15T08:39:46;94850.00;;;11.40
41593;BMP180;28026;48.562;14.440;2023-02-15T08:42:17;94847.00;;;11.60
41593;BMP180;28026;48.562;14.440;2023-02-15T08:44:48;94854.00;;;11.80
41593;BMP180;28026;48.562;14.440;2023-02-15T08:47:20;94859.00;;;11.90
41593;BMP180;28026;48.562;14.440;2023-02-15T08:49:51;94852.00;;;12.10
41593;BMP180;28026;48.562;14.440;2023-02-15T08:52:22;94847.00;;;12.20
41593;BMP180;28026;48.562;14.440;2023-02-15T08:54:53;94849.00;;;12.40
41593;BMP180;28026;48.562;14.440;2023-02-15T08:57:25;94856.00;;;12.50
41593;BMP180;28026;48.562;14.440;2023-02-15T08:59:57;94843.00;;;12.70
41593;BMP180;28026;48.562;14.440;2023-02-15T09:02:29;94853.00;;;12.80
41593;BMP180;28026;48.562;14.440;2023-02-15T09:05:00;94845.00;;;13.00
41593;BMP180;28026;48.562;14.440;2023-02-15T09:07:30;94856.00;;;13.20
41593;BMP180;28026;48.562;14.440;2023-02-15T09:10:01;94843.00;;;13.30
41593;BMP180;28026;48.562;14.440;2023-02-15T09:12:32;94853.00;;;13.50
41593;BMP180;28026;48.562;14.440;2023-02-15T09:15:03;94853.00;;;13.70
41593;BMP180;28026;48.562;14.440;2023-02-15T09:17:34;94852.00;;;13.60
41593;BMP180;28026;48.562;14.440;2023-02-15T09:20:06;94856.00;;;13.40
41593;BMP180;28026;48.562;14.440;2023-02-15T09:22:38;94845.00;;;13.10
41593;BMP180;28026;48.562;14.440;2023-02-15T09:25:08;94850.00;;;13.00
41593;BMP180;28026;48.562;14.440;2023-02-15T09:27:39;94855.00;;;12.90
41593;BMP180;28026;48.562;14.440;2023-02-15T09:30:12;94850.00;;;13.00
41593;BMP180;28026;48.562;14.440;2023-02-15T09:32:43;94852.00;;;13.10
41593;BMP180;28026;48.562;14.440;2023-02-15T09:35:16;94856.00;;;13.00
41593;BMP180;28026;48.562;14.440;2023-02-15T09:37:47;94859.00;;;12.90
41593;BMP180;28026;48.562;14.440;2023-02-15T09:40:18;94860.00;;;12.90
41593;BMP180;28026;48.562;14.440;2023-02-15T09:43:35;94867.00;;;13.00
41593;BMP180;28026;48.562;14.440;2023-02-15T09:46:20;94860.00;;;12.90
41593;BMP180;28026;48.562;14.440;2023-02-15T09:49:26;94860.00;;;12.70
41593;BMP180;28026;48.562;14.440;2023-02-15T10:20:57;94855.00;;;12.20
41593;BMP180;28026;48.562;14.440;2023-02-15T10:26:46;94856.00;;;12.10
41593;BMP180;28026;48.562;14.440;2023-02-15T10:30:10;94849.00;;;12.20
41593;BMP180;28026;48.562;14.440;2023-02-15T10:33:04;94852.00;;;12.00
41593;BMP180;28026;48.562;14.440;2023-02-15T10:36:29;94847.00;;;11.80
41593;BMP180;28026;48.562;14.440;2023-02-15T10:39:39;94857.00;;;11.60
41593;BMP180;28026;48.562;14.440;2023-02-15T10:49:45;94845.00;;;11.30
41593;BMP180;28026;48.562;14.440;2023-02-15T10:52:58;94838.00;;;11.30
41593;BMP180;28026;48.562;14.440;2023-02-15T11:02:31;94823.00;;;11.70
41593;BMP180;28026;48.562;14.440;2023-02-15T11:08:11;94816.00;;;12.10
41593;BMP180;28026;48.562;14.440;2023-02-15T11:10:58;94817.00;;;12.30
41593;BMP180;28026;48.562;14.440;2023-02-15T11:13:43;94818.00;;;12.60
41593;BMP180;28026;48.562;14.440;2023-02-15T11:16:25;94812.00;;;13.00
41593;BMP180;28026;48.562;14.440;2023-02-15T11:19:17;94813.00;;;13.10
41593;BMP180;28026;48.562;14.440;2023-02-15T11:21:59;94813.00;;;13.20
41593;BMP180;28026;48.562;14.440;2023-02-15T11:24:41;94801.00;;;13.20
41593;BMP180;28026;48.562;14.440;2023-02-15T11:27:17;94793.00;;;13.40
41593;BMP180;28026;48.562;14.440;2023-02-15T11:30:10;94786.00;;;13.70
41593;BMP180;28026;48.562;14.440;2023-02-15T11:32:48;94779.00;;;13.80
41593;BMP180;28026;48.562;14.440;2023-02-15T11:35:31;94779.00;;;14.00
41593;BMP180;28026;48.562;14.440;2023-02-15T11:38:28;94778.00;;;14.40
41593;BMP180;28026;48.562;14.440;2023-02-15T11:41:17;94774.00;;;14.90
41593;BMP180;28026;48.562;14.440;2023-02-15T11:44:07;94770.00;;;15.20
41593;BMP180;28026;48.562;14.440;2023-02-15T11:46:45;94763.00;;;15.20
41593;BMP180;28026;48.562;14.440;2023-02-15T11:49:32;94760.00;;;15.30
41593;BMP180;28026;48.562;14.440;2023-02-15T11:52:12;94758.00;;;15.50
41593;BMP180;28026;48.562;14.440;2023-02-15T11:54:49;94758.00;;;15.80
41593;BMP180;28026;48.562;14.440;2023-02-15T11:57:38;94766.00;;;16.20
41593;BMP180;28026;48.562;14.440;2023-02-15T12:00:40;94761.00;;;16.40
41593;BMP180;28026;48.562;14.440;2023-02-15T12:03:28;94753.00;;;16.70
41593;BMP180;28026;48.562;14.440;2023-02-15T12:06:21;94762.00;;;17.10
41593;BMP180;28026;48.562;14.440;2023-02-15T12:09:45;94755.00;;;17.40
41593;BMP180;28026;48.562;14.440;2023-02-15T12:12:32;94751.00;;;17.70
41593;BMP180;28026;48.562;14.440;2023-02-15T12:15:08;94747.00;;;17.90
41593;BMP180;28026;48.562;14.440;2023-02-15T12:17:53;94757.00;;;18.10
41593;BMP180;28026;48.562;14.440;2023-02-15T12:20:31;94756.00;;;18.10
41593;BMP180;28026;48.562;14.440;2023-02-15T12:23:12;94753.00;;;18.30
41593;BMP180;28026;48.562;14.440;2023-02-15T12:25:53;94752.00;;;18.40
41593;BMP180;28026;48.562;14.440;2023-02-15T12:28:48;94750.00;;;18.30
41593;BMP180;28026;48.562;14.440;2023-02-15T12:34:21;94751.00;;;17.90
41593;BMP180;28026;48.562;14.440;2023-02-15T12:37:01;94758.00;;;17.80
41593;BMP180;28026;48.562;14.440;2023-02-15T12:39:54;94755.00;;;17.60
41593;BMP180;28026;48.562;14.440;2023-02-15T12:42:43;94756.00;;;17.50
41593;BMP180;28026;48.562;14.440;2023-02-15T12:45:32;94738.00;;;17.40
41593;BMP180;28026;48.562;14.440;2023-02-15T12:48:19;94734.00;;;17.30
41593;BMP180;28026;48.562;14.440;2023-02-15T12:50:51;94733.00;;;17.20
41593;BMP180;28026;48.562;14.440;2023-02-15T12:53:35;94738.00;;;17.10
41593;BMP180;28026;48.562;14.440;2023-02-15T12:56:10;94731.00;;;16.80
41593;BMP180;28026;48.562;14.440;2023-02-15T12:58:41;94730.00;;;16.70
41593;BMP180;28026;48.562;14.440;2023-02-15T13:01:15;94724.00;;;16.70
41593;BMP180;28026;48.562;14.440;2023-02-15T13:04:02;94719.00;;;16.70
41593;BMP180;28026;48.562;14.440;2023-02-15T13:06:36;94717.00;;;17.00
41593;BMP180;28026;48.562;14.440;2023-02-15T13:12:23;94717.00;;;17.10
41593;BMP180;28026;48.562;14.440;2023-02-15T13:14:58;94706.00;;;17.00
41593;BMP180;28026;48.562;14.440;2023-02-15T13:17:33;94712.00;;;17.00
41593;BMP180;28026;48.562;14.440;2023-02-15T13:20:16;94707.00;;;16.80
41593;BMP180;28026;48.562;14.440;2023-02-15T13:22:58;94697.00;;;16.50
41593;BMP180;28026;48.562;14.440;2023-02-15T13:25:45;94694.00;;;16.40
41593;BMP180;28026;48.562;14.440;2023-02-15T13:28:26;94702.00;;;16.50
41593;BMP180;28026;48.562;14.440;2023-02-15T13:31:18;94703.00;;;16.70
41593;BMP180;28026;48.562;14.440;2023-02-15T13:33:56;94695.00;;;16.80
41593;BMP180;28026;48.562;14.440;2023-02-15T13:36:59;94697.00;;;16.90
41593;BMP180;28026;48.562;14.440;2023-02-15T13:39:48;94699.00;;;16.80
41593;BMP180;28026;48.562;14.440;2023-02-15T13:46:06;94690.00;;;16.70
41593;BMP180;28026;48.562;14.440;2023-02-15T13:49:32;94679.00;;;16.60
41593;BMP180;28026;48.562;14.440;2023-02-15T13:52:24;94683.00;;;16.80
41593;BMP180;28026;48.562;14.440;2023-02-15T13:55:24;94679.00;;;16.90
41593;BMP180;28026;48.562;14.440;2023-02-15T14:01:18;94662.00;;;16.40
41593;BMP180;28026;48.562;14.440;2023-02-15T14:08:04;94667.00;;;16.10
41593;BMP180;28026;48.562;14.440;2023-02-15T14:11:39;94666.00;;;15.90
41593;BMP180;28026;48.562;14.440;2023-02-15T14:17:28;94669.00;;;16.00
41593;BMP180;28026;48.562;14.440;2023-02-15T14:30:34;94676.00;;;16.20
41593;BMP180;28026;48.562;14.440;2023-02-15T14:33:32;94672.00;;;16.30
41593;BMP180;28026;48.562;14.440;2023-02-15T14:36:13;94671.00;;;16.20
41593;BMP180;28026;48.562;14.440;2023-02-15T14:39:29;94672.00;;;16.20
41593;BMP180;28026;48.562;14.440;2023-02-15T14:43:24;94672.00;;;16.20
41593;BMP180;28026;48.562;14.440;2023-02-15T14:46:38;94668.00;;;16.00
41593;BMP180;28026;48.562;14.440;2023-02-15T14:49:26;94663.00;;;16.00
41593;BMP180;28026;48.562;14.440;2023-02-15T14:52:04;94667.00;;;16.00
41593;BMP180;28026;48.562;14.440;2023-02-15T15:02:45;94667.00;;;16.20
41593;BMP180;28026;48.562;14.440;2023-02-15T15:05:47;94659.00;;;16.20
41593;BMP180;28026;48.562;14.440;2023-02-15T15:08:36;94661.00;;;15.90
41593;BMP180;28026;48.562;14.440;2023-02-15T15:14:00;94660.00;;;15.80
41593;BMP180;28026;48.562;14.440;2023-02-15T15:19:12;94659.00;;;15.30
41593;BMP180;28026;48.562;14.440;2023-02-15T15:22:03;94661.00;;;15.10
41593;BMP180;28026;48.562;14.440;2023-02-15T15:39:01;94650.00;;;13.50
41593;BMP180;28026;48.562;14.440;2023-02-15T15:48:33;94639.00;;;12.90
41593;BMP180;28026;48.562;14.440;2023-02-15T15:51:30;94637.00;;;12.70
41593;BMP180;28026;48.562;14.440;2023-02-15T15:54:03;94639.00;;;12.60
41593;BMP180;28026;48.562;14.440;2023-02-15T15:56:36;94644.00;;;12.40
41593;BMP180;28026;48.562;14.440;2023-02-15T15:59:19;94641.00;;;12.20
41593;BMP180;28026;48.562;14.440;2023-02-15T16:01:54;94644.00;;;12.00
41593;BMP180;28026;48.562;14.440;2023-02-15T16:04:30;94641.00;;;11.80
41593;BMP180;28026;48.562;14.440;2023-02-15T16:12:38;94638.00;;;11.00
41593;BMP180;28026;48.562;14.440;2023-02-15T16:15:24;94636.00;;;10.90
41593;BMP180;28026;48.562;14.440;2023-02-15T16:18:01;94639.00;;;10.70
41593;BMP180;28026;48.562;14.440;2023-02-15T16:20:36;94633.00;;;10.60
41593;BMP180;28026;48.562;14.440;2023-02-15T16:28:53;94626.00;;;10.10
41593;BMP180;28026;48.562;14.440;2023-02-15T16:31:24;94636.00;;;10.00
41593;BMP180;28026;48.562;14.440;2023-02-15T16:33:55;94639.00;;;9.90
41593;BMP180;28026;48.562;14.440;2023-02-15T16:36:28;94640.00;;;9.90
41593;BMP180;28026;48.562;14.440;2023-02-15T16:41:30;94646.00;;;10.00
41593;BMP180;28026;48.562;14.440;2023-02-15T16:44:19;94637.00;;;9.90
41593;BMP180;28026;48.562;14.440;2023-02-15T16:46:53;94635.00;;;9.90
41593;BMP180;28026;48.562;14.440;2023-02-15T16:49:27;94638.00;;;9.90
41593;BMP180;28026;48.562;14.440;2023-02-15T16:52:03;94642.00;;;9.90
41593;BMP180;28026;48.562;14.440;2023-02-15T16:54:36;94637.00;;;9.80
41593;BMP180;28026;48.562;14.440;2023-02-15T16:57:20;94643.00;;;9.90
41593;BMP180;28026;48.562;14.440;2023-02-15T17:00:00;94649.00;;;9.90
41593;BMP180;28026;48.562;14.440;2023-02-15T17:02:35;94644.00;;;10.00
41593;BMP180;28026;48.562;14.440;2023-02-15T17:05:16;94652.00;;;10.00
41593;BMP180;28026;48.562;14.440;2023-02-15T17:08:06;94643.00;;;9.80
41593;BMP180;28026;48.562;14.440;2023-02-15T17:13:30;94648.00;;;9.70
41593;BMP180;28026;48.562;14.440;2023-02-15T17:18:53;94653.00;;;9.70
41593;BMP180;28026;48.562;14.440;2023-02-15T17:21:37;94646.00;;;9.60
41593;BMP180;28026;48.562;14.440;2023-02-15T17:24:24;94651.00;;;9.50
41593;BMP180;28026;48.562;14.440;2023-02-15T17:27:18;94651.00;;;9.40
41593;BMP180;28026;48.562;14.440;2023-02-15T17:30:04;94647.00;;;9.40
41593;BMP180;28026;48.562;14.440;2023-02-15T17:33:00;94648.00;;;9.30
41593;BMP180;28026;48.562;14.440;2023-02-15T17:35:33;94651.00;;;9.30
41593;BMP180;28026;48.562;14.440;2023-02-15T17:38:17;94655.00;;;9.20
41593;BMP180;28026;48.562;14.440;2023-02-15T17:40:50;94656.00;;;9.30
41593;BMP180;28026;48.562;14.440;2023-02-15T17:43:21;94654.00;;;9.20
41593;BMP180;28026;48.562;14.440;2023-02-15T17:45:52;94649.00;;;9.10
41593;BMP180;28026;48.562;14.440;2023-02-15T17:48:36;94656.00;;;9.00